Time;durP1;ratioP1;P1;durP2;ratioP2;P2;SDS_P1;SDS_P2;PMS_P1;PMS_P2;Temp;Humidity;BMP_temperature;BMP_pressure;BME280_temperature;BME280_humidity;BME280_pressure;Samples;Min_cycle;Max_cycle;Signal;HPM_P1;HPM_P2
2022/08/08 00:00:19;;;;;;;1.90;1.50;;;;;;;;;;5052472;28;20044;-71
2022/08/08 00:02:49;;;;;;;1.58;1.48;;;21.50;55.10;;;;;;5051769;28;20057;-73
2022/08/08 00:05:19;;;;;;;1.92;1.40;;;21.70;55.30;;;;;;5051842;28;20470;-72
2022/08/08 00:07:56;;;;;;;1.85;1.38;;;21.50;55.10;;;;;;5067948;28;20052;-74
2022/08/08 00:10:25;;;;;;;2.03;1.70;;;21.30;61.40;;;;;;5051488;28;20148;-71
2022/08/08 00:12:55;;;;;;;2.67;1.70;;;21.30;61.30;;;;;;5049865;28;20092;-71
2022/08/08 00:15:24;;;;;;;2.42;1.80;;;21.80;62.00;;;;;;5068258;28;20132;-71
2022/08/08 00:17:52;;;;;;;2.47;1.67;;;21.50;55.00;;;;;;5051645;28;20517;-73
2022/08/08 00:20:23;;;;;;;2.97;1.60;;;21.50;55.00;;;;;;5051113;28;20410;-74
2022/08/08 00:22:52;;;;;;;1.90;1.60;;;21.10;62.30;;;;;;5051223;28;20065;-71
2022/08/08 00:25:21;;;;;;;3.38;2.13;;;21.50;55.00;;;;;;5052330;28;20417;-73
2022/08/08 00:27:48;;;;;;;2.33;1.45;;;21.90;55.30;;;;;;5050661;28;20136;-71
2022/08/08 00:30:15;;;;;;;1.75;1.50;;;;;;;;;;5030705;28;20064;-73
2022/08/08 00:32:43;;;;;;;1.42;1.30;;;20.60;56.60;;;;;;5047826;28;20107;-71
2022/08/08 00:35:25;;;;;;;1.58;1.30;;;21.10;61.80;;;;;;5032214;28;20060;-71
2022/08/08 00:38:05;;;;;;;1.50;1.25;;;21.50;62.30;;;;;;5032405;28;20049;-71
2022/08/08 00:41:03;;;;;;;2.35;1.50;;;21.20;61.90;;;;;;5036177;28;20063;-71
2022/08/08 00:44:09;;;;;;;2.00;1.50;;;21.40;55.00;;;;;;5050940;28;20057;-71
2022/08/08 00:46:53;;;;;;;1.75;1.40;;;21.30;62.00;;;;;;5022335;28;20056;-71
2022/08/08 00:50:14;;;;;;;1.88;1.40;;;21.00;55.70;;;;;;5052214;28;20053;-71
2022/08/08 00:52:49;;;;;;;1.52;1.40;;;21.50;62.50;;;;;;5012173;28;20446;-71
2022/08/08 00:55:27;;;;;;;2.13;1.48;;;21.30;55.00;;;;;;5046780;28;20077;-71
2022/08/08 00:58:17;;;;;;;1.90;1.50;;;21.40;55.00;;;;;;5030908;28;20053;-73
2022/08/08 01:00:50;;;;;;;1.55;1.40;;;21.10;62.50;;;;;;5031775;28;20049;-71
2022/08/08 01:03:33;;;;;;;1.50;1.30;;;21.40;55.00;;;;;;5030636;28;20061;-71
2022/08/08 01:06:32;;;;;;;1.30;1.20;;;21.40;55.00;;;;;;5030849;28;20056;-73
2022/08/08 01:09:24;;;;;;;1.60;1.30;;;20.90;61.80;;;;;;5031990;28;20056;-71
2022/08/08 01:12:35;;;;;;;1.67;1.27;;;21.30;62.00;;;;;;5050710;28;20057;-71
2022/08/08 01:15:50;;;;;;;1.77;1.50;;;21.40;62.10;;;;;;5051481;28;20053;-71
2022/08/08 01:18:38;;;;;;;1.88;1.40;;;22.10;60.90;;;;;;5051353;28;20416;-71
2022/08/08 01:21:41;;;;;;;1.63;1.40;;;21.00;62.10;;;;;;5051355;28;20052;-72
2022/08/08 01:24:41;;;;;;;1.70;1.48;;;21.20;55.00;;;;;;5048107;28;20055;-72
2022/08/08 01:27:43;;;;;;;1.40;1.30;;;21.30;55.00;;;;;;5036403;28;20057;-73
2022/08/08 01:30:43;;;;;;;1.25;1.15;;;21.30;55.00;;;;;;5029855;28;20057;-71
2022/08/08 01:33:33;;;;;;;1.92;1.30;;;22.10;62.80;;;;;;5030436;28;20065;-71
2022/08/08 01:36:28;;;;;;;1.30;1.20;;;21.10;62.10;;;;;;5030212;28;20144;-71
2022/08/08 01:39:16;;;;;;;1.67;1.20;;;21.20;55.00;;;;;;5040379;28;20155;-73
2022/08/08 01:41:50;;;;;;;1.88;1.40;;;21.20;55.00;;;;;;5051163;28;20163;-72
2022/08/08 01:44:25;;;;;;;1.40;1.20;;;21.30;58.90;;;;;;5051132;28;20124;-71
2022/08/08 01:46:57;;;;;;;1.45;1.25;;;21.40;62.60;;;;;;5049904;28;20048;-72
2022/08/08 01:49:32;;;;;;;1.58;1.33;;;21.00;56.90;;;;;;5067043;28;20397;-72
2022/08/08 01:52:02;;;;;;;1.38;1.20;;;21.20;55.00;;;;;;5050766;28;20144;-73
2022/08/08 01:54:40;;;;;;;1.42;1.17;;;21.50;62.60;;;;;;5045576;28;20081;-72
2022/08/08 01:57:13;;;;;;;1.50;1.40;;;21.20;55.00;;;;;;5030286;28;20059;-71
2022/08/08 01:59:51;;;;;;;2.83;1.40;;;21.20;62.40;;;;;;5031153;28;20053;-72
2022/08/08 02:02:22;;;;;;;1.55;1.33;;;21.20;58.30;;;;;;5029878;28;20057;-71
2022/08/08 02:04:56;;;;;;;1.40;1.20;;;21.20;55.00;;;;;;5031139;28;20053;-71
2022/08/08 02:07:26;;;;;;;1.63;1.38;;;20.80;62.10;;;;;;5030178;28;20061;-71
2022/08/08 02:10:05;;;;;;;1.40;1.30;;;21.10;55.50;;;;;;5040003;28;20148;-74
2022/08/08 02:12:34;;;;;;;1.50;1.40;;;21.10;58.70;;;;;;5049536;28;20480;-71
2022/08/08 02:15:04;;;;;;;1.63;1.23;;;20.80;62.40;;;;;;5050853;28;20049;-71
2022/08/08 02:17:35;;;;;;;1.40;1.20;;;21.40;62.00;;;;;;5066623;28;20045;-72
2022/08/08 02:20:07;;;;;;;2.95;1.33;;;20.60;62.00;;;;;;5066418;28;20064;-71
2022/08/08 02:22:37;;;;;;;1.50;1.30;;;21.10;54.90;;;;;;5066304;28;20053;-73
2022/08/08 02:25:10;;;;;;;1.50;1.40;;;21.10;54.90;;;;;;5033582;28;20057;-74
2022/08/08 02:27:39;;;;;;;1.20;1.10;;;21.90;62.80;;;;;;5034966;28;20075;-71
2022/08/08 02:30:08;;;;;;;1.30;1.20;;;20.80;62.50;;;;;;5034439;28;20719;-71
2022/08/08 02:32:45;;;;;;;1.40;1.20;;;21.60;55.20;;;;;;5033756;28;20063;-72
2022/08/08 02:35:31;;;;;;;1.75;1.30;;;21.30;62.70;;;;;;5034803;28;20054;-74
2022/08/08 02:38:15;;;;;;;1.60;1.30;;;21.00;56.50;;;;;;5033183;28;20053;-74
2022/08/08 02:40:45;;;;;;;1.30;1.20;;;21.30;62.60;;;;;;5018568;28;20487;-74
2022/08/08 02:43:40;;;;;;;1.20;1.10;;;21.20;62.40;;;;;;5033307;28;20144;-74
2022/08/08 02:46:25;;;;;;;1.33;1.20;;;21.00;61.40;;;;;;5033361;28;20057;-73
2022/08/08 02:49:18;;;;;;;1.50;1.40;;;20.90;62.30;;;;;;5034551;28;20548;-74
2022/08/08 02:52:24;;;;;;;1.33;1.20;;;21.00;54.90;;;;;;5033164;28;20513;-73
2022/08/08 02:55:19;;;;;;;1.77;1.60;;;21.00;54.90;;;;;;5027176;28;20149;-74
2022/08/08 02:58:12;;;;;;;1.65;1.30;;;21.30;58.70;;;;;;5033424;28;20085;-74
2022/08/08 03:00:56;;;;;;;1.30;1.20;;;20.90;54.80;;;;;;5032582;28;20088;-74
2022/08/08 03:03:50;;;;;;;1.50;1.20;;;21.00;54.90;;;;;;5033003;28;20100;-74
2022/08/08 03:06:54;;;;;;;1.20;1.10;;;21.20;62.50;;;;;;5049752;28;20059;-74
2022/08/08 03:09:56;;;;;;;1.77;1.30;;;20.90;54.80;;;;;;4967947;28;20060;-73
2022/08/08 03:12:47;;;;;;;1.20;1.10;;;21.00;62.40;;;;;;5052926;28;20536;-73
2022/08/08 03:15:32;;;;;;;1.20;1.10;;;21.30;62.70;;;;;;5052700;28;20136;-74
2022/08/08 03:18:04;;;;;;;1.35;1.23;;;21.00;62.60;;;;;;5052880;28;20416;-74
2022/08/08 03:20:44;;;;;;;2.00;1.20;;;21.20;62.50;;;;;;5052718;28;20204;-74
2022/08/08 03:23:12;;;;;;;1.17;1.08;;;20.70;62.40;;;;;;5042285;28;20045;-73
2022/08/08 03:25:39;;;;;;;1.67;1.10;;;;;;;;;;5032950;28;20482;-74
2022/08/08 03:28:07;;;;;;;1.20;1.10;;;20.90;54.70;;;;;;5049117;28;20054;-75
2022/08/08 03:30:34;;;;;;;1.60;1.30;;;20.60;58.30;;;;;;5032419;28;20570;-74
2022/08/08 03:33:18;;;;;;;1.33;1.20;;;20.80;62.10;;;;;;5032328;28;20059;-73
2022/08/08 03:35:45;;;;;;;1.30;1.17;;;20.80;62.10;;;;;;5033041;28;20063;-74
2022/08/08 03:38:13;;;;;;;1.58;1.17;;;20.90;54.70;;;;;;5043715;28;20053;-74
2022/08/08 03:40:41;;;;;;;1.20;1.08;;;;;;;;;;5052017;28;20556;-74
2022/08/08 03:43:09;;;;;;;1.20;1.10;;;;;;;;;;5052316;28;20067;-74
2022/08/08 03:45:36;;;;;;;1.30;1.20;;;20.70;62.20;;;;;;5052398;28;20055;-73
2022/08/08 03:48:04;;;;;;;1.15;1.00;;;20.80;54.60;;;;;;5052064;28;20574;-72
2022/08/08 03:50:31;;;;;;;1.27;1.10;;;20.80;54.60;;;;;;5068665;28;20049;-71
2022/08/08 03:53:01;;;;;;;1.30;1.20;;;21.10;62.50;;;;;;5036217;28;20133;-71
2022/08/08 03:55:29;;;;;;;1.23;1.13;;;21.00;62.60;;;;;;5048749;28;20049;-71
2022/08/08 03:57:56;;;;;;;2.05;1.33;;;20.10;61.70;;;;;;5032955;28;20054;-71
2022/08/08 04:00:24;;;;;;;1.75;1.30;;;20.80;54.60;;;;;;5031660;28;20061;-72
2022/08/08 04:02:54;;;;;;;1.20;1.10;;;20.80;62.30;;;;;;5032664;28;20051;-71
2022/08/08 04:05:21;;;;;;;1.50;1.20;;;20.70;58.50;;;;;;5032906;28;20421;-71
2022/08/08 04:07:48;;;;;;;1.80;1.10;;;21.10;56.20;;;;;;5036749;28;20081;-71
2022/08/08 04:10:15;;;;;;;1.30;1.20;;;21.00;62.40;;;;;;5032287;28;20056;-71
2022/08/08 04:12:43;;;;;;;1.23;1.13;;;20.90;56.30;;;;;;5031745;28;20056;-72
2022/08/08 04:15:10;;;;;;;1.20;1.10;;;20.80;54.60;;;;;;5032880;28;20045;-71
2022/08/08 04:17:38;;;;;;;2.22;1.10;;;;;;;;;;5031403;28;20055;-72
2022/08/08 04:20:05;;;;;;;1.20;1.10;;;20.60;62.00;;;;;;5049060;28;20064;-70
2022/08/08 04:22:32;;;;;;;1.20;0.98;;;21.00;58.60;;;;;;5052520;28;20049;-71
2022/08/08 04:24:58;;;;;;;1.20;1.10;;;20.40;59.90;;;;;;5052376;28;20055;-71
2022/08/08 04:27:25;;;;;;;0.90;0.90;;;20.30;61.40;;;;;;5052728;28;20123;-71
2022/08/08 04:29:53;;;;;;;1.25;1.05;;;21.10;60.60;;;;;;5052294;28;20386;-71
2022/08/08 04:32:20;;;;;;;1.10;1.00;;;20.70;59.10;;;;;;5051101;28;20059;-71
2022/08/08 04:34:47;;;;;;;0.90;0.90;;;21.60;62.20;;;;;;5049741;28;20128;-71
2022/08/08 04:37:13;;;;;;;1.25;1.15;;;20.80;61.60;;;;;;5032267;28;20149;-71
2022/08/08 04:39:40;;;;;;;1.23;1.13;;;20.80;56.40;;;;;;5032454;28;20149;-71
2022/08/08 04:42:07;;;;;;;1.20;1.10;;;21.10;61.70;;;;;;5030744;28;20049;-71
2022/08/08 04:44:34;;;;;;;1.40;1.30;;;;;;;;;;5032193;28;20306;-71
2022/08/08 04:47:02;;;;;;;1.38;1.20;;;20.90;55.60;;;;;;5031413;28;20395;-71
2022/08/08 04:49:29;;;;;;;1.42;1.20;;;20.80;61.80;;;;;;5037579;28;20045;-71
2022/08/08 04:51:56;;;;;;;1.52;1.25;;;;;;;;;;5050583;28;20058;-71
2022/08/08 04:54:23;;;;;;;1.45;1.10;;;20.70;61.20;;;;;;5052055;28;20135;-71
2022/08/08 04:56:49;;;;;;;1.30;1.20;;;20.20;61.60;;;;;;5051773;28;20048;-71
2022/08/08 04:59:16;;;;;;;1.30;1.20;;;21.00;61.90;;;;;;5051996;28;20160;-71
2022/08/08 05:01:43;;;;;;;1.17;1.08;;;20.90;60.90;;;;;;5051792;28;20049;-71
2022/08/08 05:04:11;;;;;;;1.38;1.08;;;20.60;58.60;;;;;;5046097;28;20129;-71
2022/08/08 05:06:38;;;;;;;1.90;1.20;;;20.70;61.60;;;;;;5031537;28;20406;-71
2022/08/08 05:09:04;;;;;;;1.73;1.20;;;20.00;61.50;;;;;;5031245;28;20161;-71
2022/08/08 05:11:31;;;;;;;1.33;1.23;;;21.50;57.40;;;;;;5029993;28;20124;-71
2022/08/08 05:13:58;;;;;;;1.70;1.40;;;21.00;61.80;;;;;;5046984;28;20050;-71
2022/08/08 05:16:24;;;;;;;1.25;1.13;;;20.30;61.70;;;;;;5031169;28;20498;-71
2022/08/08 05:18:51;;;;;;;1.40;1.20;;;20.60;54.90;;;;;;5031268;28;20046;-71
2022/08/08 05:21:39;;;;;;;1.40;1.20;;;20.70;54.50;;;;;;5029414;28;20429;-72
2022/08/08 05:24:09;;;;;;;1.30;1.20;;;21.00;62.10;;;;;;5030556;28;20045;-71
2022/08/08 05:26:36;;;;;;;1.58;1.15;;;20.60;61.60;;;;;;5031359;28;20128;-71
2022/08/08 05:29:03;;;;;;;1.38;1.23;;;20.80;61.90;;;;;;5031280;28;20057;-71
2022/08/08 05:31:30;;;;;;;1.30;1.20;;;;;;;;;;5030103;28;20115;-71
2022/08/08 05:33:57;;;;;;;1.30;1.20;;;20.70;61.70;;;;;;5043991;28;20055;-71
2022/08/08 05:36:24;;;;;;;1.30;1.20;;;20.70;54.60;;;;;;5050295;28;20048;-72
2022/08/08 05:38:52;;;;;;;1.33;1.15;;;19.80;61.40;;;;;;5051511;28;20080;-71
2022/08/08 05:41:21;;;;;;;1.77;1.23;;;20.50;59.50;;;;;;5049927;28;20059;-71
2022/08/08 05:43:47;;;;;;;1.50;1.10;;;20.90;56.10;;;;;;5051439;28;20045;-70
2022/08/08 05:46:15;;;;;;;1.30;1.10;;;20.50;56.90;;;;;;5050036;28;20076;-71
2022/08/08 05:48:42;;;;;;;1.30;1.20;;;21.20;61.90;;;;;;5033960;28;20057;-70
2022/08/08 05:51:08;;;;;;;1.27;1.17;;;21.50;61.80;;;;;;5031387;28;20060;-71
2022/08/08 05:53:35;;;;;;;1.20;1.10;;;20.60;61.70;;;;;;5029989;28;20053;-71
2022/08/08 05:56:04;;;;;;;1.20;1.10;;;20.30;61.80;;;;;;5030263;28;20137;-71
2022/08/08 05:58:31;;;;;;;1.13;1.02;;;20.50;56.00;;;;;;5033882;28;20049;-71
2022/08/08 06:00:59;;;;;;;1.20;1.10;;;20.70;54.70;;;;;;5034104;28;20466;-71
2022/08/08 06:03:27;;;;;;;1.20;1.10;;;20.90;62.20;;;;;;5052038;28;20055;-71
2022/08/08 06:05:55;;;;;;;1.50;1.20;;;20.90;62.20;;;;;;5055238;28;20053;-70
2022/08/08 06:08:24;;;;;;;1.13;1.02;;;20.70;62.10;;;;;;5053973;28;20132;-70
2022/08/08 06:10:52;;;;;;;1.55;1.15;;;20.40;61.80;;;;;;5054912;28;20421;-73
2022/08/08 06:13:21;;;;;;;1.58;1.30;;;21.10;62.30;;;;;;5055045;28;20132;-72
2022/08/08 06:15:48;;;;;;;1.15;1.00;;;21.00;62.00;;;;;;5051268;28;20059;-72
2022/08/08 06:18:15;;;;;;;1.42;1.05;;;20.70;57.70;;;;;;5032923;28;20057;-71
2022/08/08 06:20:43;;;;;;;1.40;1.13;;;20.50;61.90;;;;;;5034717;28;20524;-72
2022/08/08 06:23:10;;;;;;;1.60;1.10;;;;;;;;;;5033927;28;20156;-71
2022/08/08 06:25:36;;;;;;;1.58;1.17;;;20.50;62.20;;;;;;5034890;28;20417;-72
2022/08/08 06:28:04;;;;;;;1.20;1.10;;;;;;;;;;5033876;28;20496;-74
2022/08/08 06:30:32;;;;;;;2.58;1.45;;;20.90;62.30;;;;;;5033096;28;20132;-74
2022/08/08 06:32:59;;;;;;;1.20;1.10;;;21.50;62.70;;;;;;5032443;28;20045;-74
2022/08/08 06:35:26;;;;;;;1.30;1.15;;;20.90;62.40;;;;;;5033072;28;20059;-74
2022/08/08 06:37:54;;;;;;;1.63;1.30;;;20.70;54.90;;;;;;5033103;28;20055;-74
2022/08/08 06:40:21;;;;;;;1.63;1.10;;;20.80;62.20;;;;;;5032945;28;20059;-74
2022/08/08 06:42:51;;;;;;;1.73;1.20;;;20.70;54.80;;;;;;5034042;28;20041;-74
2022/08/08 06:45:19;;;;;;;1.58;1.10;;;21.40;62.50;;;;;;5031357;28;20049;-74
2022/08/08 06:47:47;;;;;;;1.02;0.93;;;20.70;54.80;;;;;;5032869;28;20050;-72
2022/08/08 06:50:14;;;;;;;1.83;1.13;;;;;;;;;;5032443;28;20068;-73
2022/08/08 06:52:41;;;;;;;1.77;1.13;;;20.90;62.20;;;;;;5032763;28;20055;-74
2022/08/08 06:55:08;;;;;;;2.08;1.10;;;20.80;62.40;;;;;;5032893;28;20065;-71
2022/08/08 06:57:35;;;;;;;1.17;1.00;;;21.00;62.50;;;;;;5032962;28;20048;-71
2022/08/08 07:00:02;;;;;;;1.52;1.00;;;20.70;62.30;;;;;;5032592;28;20071;-71
2022/08/08 07:02:31;;;;;;;0.90;0.90;;;20.20;62.00;;;;;;5034073;28;20124;-71
2022/08/08 07:05:03;;;;;;;0.90;0.90;;;20.80;54.70;;;;;;5030264;28;20061;-73
2022/08/08 07:07:33;;;;;;;0.90;0.90;;;20.80;62.40;;;;;;5033991;28;20049;-71
2022/08/08 07:10:02;;;;;;;1.00;0.90;;;20.80;54.70;;;;;;5034510;28;20041;-73
2022/08/08 07:12:34;;;;;;;1.20;1.10;;;20.10;61.70;;;;;;5034036;28;20057;-74
2022/08/08 07:15:03;;;;;;;1.20;1.10;;;21.50;56.80;;;;;;5032899;28;20055;-74
2022/08/08 07:17:30;;;;;;;1.55;1.10;;;20.90;62.40;;;;;;5033530;28;20402;-74
2022/08/08 07:20:02;;;;;;;1.20;1.10;;;21.00;60.20;;;;;;5032471;28;20053;-73
2022/08/08 07:22:34;;;;;;;1.17;1.08;;;21.30;62.40;;;;;;5033848;28;20050;-73
2022/08/08 07:25:01;;;;;;;1.10;1.00;;;20.90;54.80;;;;;;5035404;28;20052;-71
2022/08/08 07:27:30;;;;;;;1.35;1.10;;;20.10;61.60;;;;;;5043555;28;20049;-73
2022/08/08 07:29:57;;;;;;;1.20;1.10;;;;;;;;;;5032493;28;20662;-73
2022/08/08 07:32:24;;;;;;;1.35;1.00;;;20.20;61.90;;;;;;5033569;28;20064;-73
2022/08/08 07:34:51;;;;;;;1.20;1.08;;;21.40;62.20;;;;;;5032642;28;20135;-73
2022/08/08 07:37:21;;;;;;;1.58;1.02;;;20.70;61.60;;;;;;5032550;28;20057;-72
2022/08/08 07:39:48;;;;;;;1.55;1.10;;;21.50;62.10;;;;;;5033406;28;20525;-73
2022/08/08 07:42:16;;;;;;;1.55;1.00;;;21.30;61.90;;;;;;5038026;28;20049;-72
2022/08/08 07:44:43;;;;;;;1.10;1.00;;;21.50;61.90;;;;;;5038593;28;20107;-72
2022/08/08 07:47:09;;;;;;;1.33;1.20;;;21.30;54.10;;;;;;5033330;28;20768;-71
2022/08/08 07:49:36;;;;;;;1.77;1.10;;;21.50;61.40;;;;;;5033298;28;20049;-73
2022/08/08 07:52:03;;;;;;;1.20;1.10;;;21.70;61.70;;;;;;5031328;28;20045;-73
2022/08/08 07:54:34;;;;;;;1.23;1.00;;;21.50;58.20;;;;;;5031742;28;20068;-73
2022/08/08 07:57:09;;;;;;;1.10;1.00;;;21.30;61.20;;;;;;5032590;28;20055;-73
2022/08/08 07:59:41;;;;;;;;;;;21.70;54.40;;;;;;5033337;28;20068;-73
2022/08/08 08:02:08;;;;;;;1.35;1.23;;;21.10;57.00;;;;;;5032904;28;19967;-72
2022/08/08 08:04:35;;;;;;;3.00;1.20;;;21.90;61.80;;;;;;5032602;28;20046;-71
2022/08/08 08:07:02;;;;;;;1.63;1.20;;;22.00;55.90;;;;;;5030435;28;20576;-73
2022/08/08 08:09:34;;;;;;;1.65;1.20;;;22.60;62.10;;;;;;5031972;28;20045;-73
2022/08/08 08:12:01;;;;;;;3.42;1.33;;;;;;;;;;5032577;28;20060;-73
2022/08/08 08:14:30;;;;;;;2.33;1.40;;;21.70;61.50;;;;;;5032924;28;20060;-73
2022/08/08 08:16:58;;;;;;;2.70;1.55;;;22.20;61.40;;;;;;5031468;28;20063;-72
2022/08/08 08:19:30;;;;;;;2.75;1.48;;;22.90;61.70;;;;;;5031441;28;20057;-72
2022/08/08 08:21:57;;;;;;;3.45;1.20;;;22.00;59.90;;;;;;5032307;28;20057;-72
2022/08/08 08:24:23;;;;;;;1.38;1.20;;;22.20;61.20;;;;;;5031468;28;20057;-72
2022/08/08 08:26:51;;;;;;;2.25;1.27;;;22.30;61.80;;;;;;5031663;28;20083;-72
2022/08/08 08:29:18;;;;;;;4.40;1.52;;;;;;;;;;5031678;28;20064;-73
2022/08/08 08:31:46;;;;;;;2.33;1.30;;;;;;;;;;5032093;28;20050;-73
2022/08/08 08:34:12;;;;;;;4.90;1.33;;;22.40;61.10;;;;;;5031211;28;20674;-74
2022/08/08 08:36:40;;;;;;;1.48;1.10;;;;;;;;;;5032519;28;20049;-73
2022/08/08 08:39:06;;;;;;;1.75;1.20;;;22.70;56.30;;;;;;5030678;28;20309;-73
2022/08/08 08:41:33;;;;;;;2.33;1.20;;;;;;;;;;5011786;28;20054;-74
2022/08/08 08:44:02;;;;;;;3.00;1.33;;;21.50;61.00;;;;;;5030072;28;20049;-74
2022/08/08 08:46:29;;;;;;;1.60;1.30;;;;;;;;;;5030108;28;20053;-71
2022/08/08 08:48:56;;;;;;;1.92;1.25;;;21.70;60.50;;;;;;5029989;28;20438;-74
2022/08/08 08:51:23;;;;;;;2.05;1.20;;;21.60;60.30;;;;;;5029895;28;20128;-73
2022/08/08 08:53:50;;;;;;;1.85;1.40;;;22.50;60.60;;;;;;5031048;28;20059;-74
2022/08/08 08:56:18;;;;;;;2.55;1.13;;;;;;;;;;5030006;28;20581;-71
2022/08/08 08:58:45;;;;;;;3.88;1.30;;;22.20;60.50;;;;;;5030351;28;20060;-73
2022/08/08 09:01:15;;;;;;;2.25;1.30;;;22.40;53.30;;;;;;5030687;28;20479;-74
2022/08/08 09:03:43;;;;;;;2.28;1.20;;;22.50;60.80;;;;;;5030661;28;20413;-74
2022/08/08 09:06:10;;;;;;;1.65;1.15;;;22.50;57.80;;;;;;5031310;28;20080;-73
2022/08/08 09:08:38;;;;;;;1.70;1.10;;;22.30;55.20;;;;;;5031422;28;20088;-74
2022/08/08 09:11:05;;;;;;;3.20;1.30;;;22.40;60.60;;;;;;5031890;28;20076;-74
2022/08/08 09:13:32;;;;;;;2.90;1.38;;;22.70;60.90;;;;;;5031908;28;20567;-74
2022/08/08 09:15:59;;;;;;;1.98;1.20;;;22.40;60.60;;;;;;5031425;28;20063;-74
2022/08/08 09:18:27;;;;;;;3.50;1.30;;;22.30;53.50;;;;;;5028867;28;20172;-71
2022/08/08 09:20:54;;;;;;;3.65;1.10;;;;;;;;;;5029730;28;20388;-73
2022/08/08 09:23:21;;;;;;;4.22;1.70;;;22.20;60.80;;;;;;5029911;28;20451;-74
2022/08/08 09:25:50;;;;;;;2.83;1.42;;;22.80;61.20;;;;;;5030155;28;20053;-74
2022/08/08 09:28:17;;;;;;;3.53;1.40;;;22.00;60.90;;;;;;5030191;28;20140;-74
2022/08/08 09:30:44;;;;;;;2.03;1.35;;;22.10;57.60;;;;;;5029827;28;20060;-73
2022/08/08 09:33:11;;;;;;;1.73;1.10;;;22.20;57.40;;;;;;5045922;28;20500;-73
2022/08/08 09:35:39;;;;;;;1.92;1.20;;;22.00;61.20;;;;;;5031142;28;20041;-74
2022/08/08 09:38:05;;;;;;;3.97;1.40;;;22.10;61.30;;;;;;5029808;28;20235;-74
2022/08/08 09:40:33;;;;;;;2.70;1.40;;;21.50;61.70;;;;;;5028238;28;20048;-74
2022/08/08 09:43:07;;;;;;;2.35;1.40;;;21.90;61.90;;;;;;5031070;28;20095;-74
2022/08/08 09:45:39;;;;;;;1.10;1.00;;;21.90;54.10;;;;;;5027031;28;20395;-73
2022/08/08 09:48:06;;;;;;;2.17;1.20;;;22.00;61.80;;;;;;5030115;28;20061;-72
2022/08/08 09:50:33;;;;;;;1.55;1.00;;;22.20;57.00;;;;;;5027098;28;20057;-72
2022/08/08 09:53:02;;;;;;;1.95;1.10;;;22.30;61.70;;;;;;5030323;28;20465;-73
2022/08/08 09:55:30;;;;;;;2.05;1.15;;;22.20;57.60;;;;;;5030418;28;20063;-73
2022/08/08 09:58:01;;;;;;;3.63;1.20;;;22.30;61.70;;;;;;5030301;28;20439;-74
2022/08/08 10:00:27;;;;;;;4.57;1.17;;;22.50;59.70;;;;;;5030958;28;20060;-74
2022/08/08 10:02:54;;;;;;;3.03;1.10;;;22.70;62.40;;;;;;5031490;28;20053;-74
2022/08/08 10:05:24;;;;;;;1.40;1.08;;;22.50;61.90;;;;;;5031129;28;20132;-74
2022/08/08 10:07:55;;;;;;;1.10;1.00;;;22.30;61.60;;;;;;5030177;28;20073;-74
2022/08/08 10:10:27;;;;;;;1.52;1.00;;;21.70;61.20;;;;;;5029750;28;20049;-74
2022/08/08 10:12:54;;;;;;;1.50;0.95;;;;;;;;;;5030922;28;20486;-73
2022/08/08 10:15:21;;;;;;;2.85;1.13;;;22.30;62.00;;;;;;5029563;28;20060;-72
2022/08/08 10:17:48;;;;;;;2.90;1.08;;;22.30;53.60;;;;;;5029529;28;20136;-71
2022/08/08 10:20:15;;;;;;;5.85;1.23;;;22.50;62.20;;;;;;5029441;28;20064;-72
2022/08/08 10:22:46;;;;;;;2.40;1.30;;;21.80;54.00;;;;;;5031000;28;20042;-72
2022/08/08 10:25:15;;;;;;;2.47;1.20;;;22.40;62.10;;;;;;5030081;28;20385;-72
2022/08/08 10:27:43;;;;;;;2.17;1.20;;;22.10;61.90;;;;;;5030220;28;20056;-72
2022/08/08 10:30:11;;;;;;;1.33;1.20;;;22.20;53.60;;;;;;5029549;28;20521;-71
2022/08/08 10:32:39;;;;;;;1.20;1.00;;;22.20;53.70;;;;;;5030052;28;20060;-71
2022/08/08 10:35:08;;;;;;;1.00;0.90;;;22.20;53.70;;;;;;5029981;28;20426;-72
2022/08/08 10:37:35;;;;;;;1.45;1.05;;;22.30;62.20;;;;;;5029437;28;20492;-72
2022/08/08 10:40:12;;;;;;;2.72;1.20;;;22.20;53.80;;;;;;5030637;28;20045;-71
2022/08/08 10:42:39;;;;;;;3.10;1.10;;;;;;;;;;5026799;28;20045;-72
2022/08/08 10:45:08;;;;;;;0.90;0.90;;;22.30;58.50;;;;;;5031017;28;20083;-72
2022/08/08 10:47:35;;;;;;;2.03;1.10;;;22.20;56.50;;;;;;5032943;28;20136;-72
2022/08/08 10:50:02;;;;;;;2.10;1.30;;;22.30;62.50;;;;;;5033204;28;20057;-72
2022/08/08 10:52:31;;;;;;;1.75;1.13;;;22.40;62.20;;;;;;5032809;28;20061;-72
2022/08/08 10:54:58;;;;;;;1.25;1.05;;;22.00;62.80;;;;;;5033434;28;20144;-73
2022/08/08 10:57:26;;;;;;;2.28;1.20;;;;;;;;;;5033338;28;20061;-72
2022/08/08 10:59:53;;;;;;;1.52;1.02;;;22.10;54.10;;;;;;5033052;28;20192;-70
2022/08/08 11:02:25;;;;;;;1.20;1.10;;;22.40;63.60;;;;;;5033044;28;20522;-72
2022/08/08 11:04:52;;;;;;;1.92;1.10;;;21.90;62.80;;;;;;5034074;28;20465;-72
2022/08/08 11:07:29;;;;;;;2.15;1.30;;;22.10;54.10;;;;;;5033526;28;20120;-71
2022/08/08 11:09:56;;;;;;;1.30;1.20;;;22.40;54.30;;;;;;5033709;28;20550;-71
2022/08/08 11:12:22;;;;;;;1.63;1.10;;;22.40;57.90;;;;;;5034038;28;20463;-74
2022/08/08 11:14:55;;;;;;;2.72;1.27;;;22.10;54.10;;;;;;5032413;28;20053;-73
2022/08/08 11:17:25;;;;;;;2.05;1.10;;;22.20;63.20;;;;;;5031662;28;20076;-74
2022/08/08 11:19:52;;;;;;;1.25;1.00;;;21.50;62.60;;;;;;5029358;28;20056;-74
2022/08/08 11:22:24;;;;;;;1.27;1.00;;;21.40;62.60;;;;;;5031705;28;20068;-74
2022/08/08 11:24:50;;;;;;;1.65;1.10;;;22.70;63.50;;;;;;5032550;28;20140;-74
2022/08/08 11:27:17;;;;;;;1.27;1.00;;;21.90;62.70;;;;;;5032930;28;20061;-74
2022/08/08 11:29:44;;;;;;;1.33;1.00;;;22.20;57.40;;;;;;5032597;28;20120;-74
2022/08/08 11:32:11;;;;;;;3.22;1.02;;;;;;;;;;5032114;28;20542;-74
2022/08/08 11:34:39;;;;;;;2.58;1.00;;;22.20;54.10;;;;;;5031682;28;20491;-72
2022/08/08 11:37:06;;;;;;;1.23;1.00;;;;;;;;;;5032063;28;20137;-74
2022/08/08 11:39:33;;;;;;;2.65;1.20;;;22.40;62.20;;;;;;5031773;28;20128;-74
2022/08/08 11:42:00;;;;;;;1.83;1.10;;;21.60;63.50;;;;;;5032209;28;20037;-74
2022/08/08 11:44:27;;;;;;;1.92;1.00;;;;;;;;;;5032811;28;20045;-74
2022/08/08 11:46:56;;;;;;;1.85;1.10;;;22.70;63.70;;;;;;5048984;28;20092;-73
2022/08/08 11:49:23;;;;;;;2.53;1.20;;;22.30;58.20;;;;;;5033226;28;20457;-73
2022/08/08 11:51:51;;;;;;;1.65;1.10;;;21.80;63.90;;;;;;5032707;28;20100;-74
2022/08/08 11:54:18;;;;;;;2.28;1.30;;;22.90;64.60;;;;;;5031440;28;20112;-69
2022/08/08 11:56:44;;;;;;;4.03;1.10;;;22.40;56.40;;;;;;5032614;28;20049;-70
2022/08/08 11:59:12;;;;;;;2.38;1.13;;;21.80;56.70;;;;;;5033051;28;20103;-69
2022/08/08 12:01:39;;;;;;;4.57;1.10;;;;;;;;;;5032193;28;20414;-73
2022/08/08 12:04:09;;;;;;;2.88;1.27;;;21.80;58.50;;;;;;5031529;28;20103;-69
2022/08/08 12:06:36;;;;;;;3.42;1.30;;;22.30;59.20;;;;;;5031749;28;20060;-70
2022/08/08 12:09:07;;;;;;;2.55;1.17;;;22.00;55.40;;;;;;5051279;28;20059;-72
2022/08/08 12:11:42;;;;;;;2.25;1.17;;;22.60;65.00;;;;;;5052638;28;20127;-70
2022/08/08 12:14:09;;;;;;;1.40;1.10;;;21.90;64.60;;;;;;5051757;28;20337;-70
2022/08/08 12:16:35;;;;;;;2.47;1.10;;;21.80;64.70;;;;;;5053004;28;20417;-70
2022/08/08 12:19:02;;;;;;;1.92;1.40;;;22.00;65.20;;;;;;5052316;28;20056;-69
2022/08/08 12:21:30;;;;;;;2.40;1.05;;;22.00;55.50;;;;;;5052484;28;20178;-72
2022/08/08 12:24:04;;;;;;;2.20;1.00;;;21.20;58.80;;;;;;5035349;28;20512;-70
2022/08/08 12:26:39;;;;;;;1.70;1.10;;;22.10;65.60;;;;;;5031622;28;20053;-70
2022/08/08 12:29:23;;;;;;;0.90;0.90;;;21.80;55.50;;;;;;5031359;28;20148;-71
2022/08/08 12:32:01;;;;;;;5.63;1.30;;;22.50;55.90;;;;;;5032345;28;20128;-70
2022/08/08 12:34:40;;;;;;;2.50;1.10;;;21.90;55.60;;;;;;5031083;28;20059;-70
2022/08/08 12:37:07;;;;;;;3.30;1.10;;;21.80;55.60;;;;;;5038700;28;20089;-70
2022/08/08 12:39:34;;;;;;;2.65;1.00;;;21.80;61.60;;;;;;5052394;28;20057;-71
2022/08/08 12:42:02;;;;;;;1.35;1.02;;;21.60;65.10;;;;;;5050776;28;20489;-70
2022/08/08 12:44:30;;;;;;;1.48;1.20;;;21.60;65.30;;;;;;5052176;28;20055;-70
2022/08/08 12:46:57;;;;;;;2.00;1.00;;;22.10;65.80;;;;;;5050825;28;20059;-70
2022/08/08 12:49:27;;;;;;;0.93;0.80;;;22.20;66.00;;;;;;5051009;28;20059;-70
2022/08/08 12:51:53;;;;;;;2.03;1.10;;;21.80;65.60;;;;;;5042885;28;20057;-73
2022/08/08 12:54:21;;;;;;;1.80;1.20;;;22.10;56.40;;;;;;5030780;28;20133;-73
2022/08/08 12:56:48;;;;;;;1.20;1.10;;;21.60;65.50;;;;;;5031824;28;20045;-74
2022/08/08 12:59:16;;;;;;;1.20;1.00;;;21.90;55.90;;;;;;5032027;28;20410;-72
2022/08/08 13:01:50;;;;;;;1.20;1.05;;;22.00;59.30;;;;;;5030387;28;20053;-73
2022/08/08 13:04:17;;;;;;;1.42;1.10;;;21.90;55.60;;;;;;5032021;28;20058;-72
2022/08/08 13:06:55;;;;;;;1.30;0.95;;;21.50;62.20;;;;;;5043605;28;20057;-72
2022/08/08 13:09:36;;;;;;;1.10;1.00;;;22.20;66.40;;;;;;5050958;28;20457;-73
2022/08/08 13:12:11;;;;;;;2.97;1.10;;;22.20;64.90;;;;;;5049952;28;20052;-72
2022/08/08 13:14:40;;;;;;;1.27;0.98;;;22.00;66.20;;;;;;5057373;28;20396;-72
2022/08/08 13:17:07;;;;;;;1.77;1.10;;;;;;;;;;5030789;28;20491;-72